Time;durP1;ratioP1;P1;durP2;ratioP2;P2;SDS_P1;SDS_P2;PMS_P1;PMS_P2;Temp;Humidity;BMP_temperature;BMP_pressure;BME280_temperature;BME280_humidity;BME280_pressure;Samples;Min_cycle;Max_cycle;Signal;HPM_P1;HPM_P2
2023/04/20 00:01:38;;;;;;;30.38;22.98;;;;;;;;;;4943106;29;20032;-81
2023/04/20 00:04:05;;;;;;;31.20;23.55;;;;;;;;;;4974104;28;20020;-81
2023/04/20 00:06:32;;;;;;;32.53;24.05;;;;;;;;;;4943075;29;20047;-81
2023/04/20 00:08:59;;;;;;;30.05;23.45;;;;;;;;;;4943073;29;20031;-81
2023/04/20 00:11:25;;;;;;;32.03;23.63;;;;;;;;;;4974005;28;20410;-81
2023/04/20 00:13:51;;;;;;;32.72;23.25;;;;;;;;;;4942580;29;20371;-81
2023/04/20 00:16:17;;;;;;;33.03;24.15;;;;;;;;;;4942946;29;20055;-81
2023/04/20 00:18:45;;;;;;;29.75;23.92;;;;;;;;;;4942688;29;20458;-81
2023/04/20 00:21:12;;;;;;;33.53;26.60;;;;;;;;;;4942722;29;20031;-81
2023/04/20 00:23:38;;;;;;;32.58;24.42;;;;;;;;;;4942587;29;20043;-81
2023/04/20 00:26:04;;;;;;;31.38;24.75;;;;;;;;;;4942818;29;20355;-81
2023/04/20 00:28:30;;;;;;;35.80;26.02;;;;;;;;;;4973651;28;20334;-81
2023/04/20 00:30:57;;;;;;;31.70;24.02;;;;;;;;;;4942556;29;20031;-81
2023/04/20 00:33:23;;;;;;;30.42;24.17;;;;;;;;;;4942569;29;20106;-81
2023/04/20 00:35:49;;;;;;;30.67;23.67;;;;;;;;;;4973521;28;20032;-81
2023/04/20 00:38:15;;;;;;;30.15;22.50;;;;;;;;;;4942323;29;20063;-81
2023/04/20 00:40:43;;;;;;;30.50;24.35;;;;;;;;;;4973425;28;20335;-81
2023/04/20 00:43:13;;;;;;;31.60;23.38;;;;;;;;;;4942361;29;20058;-81
2023/04/20 00:45:39;;;;;;;32.97;24.15;;;;;;;;;;4973228;28;20096;-81
2023/04/20 00:48:06;;;;;;;33.30;24.25;;;;;;;;;;4942418;29;20042;-81
2023/04/20 00:50:32;;;;;;;28.83;23.15;;;;;;;;;;4942202;29;20035;-81
2023/04/20 00:52:59;;;;;;;31.15;23.05;;;;;;;;;;4972836;28;20036;-81
2023/04/20 00:55:25;;;;;;;32.05;23.00;;;;;;;;;;4973198;28;20032;-81
2023/04/20 00:57:52;;;;;;;28.15;21.90;;;;;;;;;;4942297;29;20024;-81
2023/04/20 01:00:19;;;;;;;29.85;22.35;;;;;;;;;;4973075;28;20335;-81
2023/04/20 01:02:45;;;;;;;28.92;21.77;;;;;;;;;;4941921;29;20306;-82
2023/04/20 01:05:11;;;;;;;32.33;22.40;;;;;;;;;;4941252;29;20039;-81
2023/04/20 01:07:37;;;;;;;31.83;22.13;;;;;;;;;;4941564;29;20079;-81
2023/04/20 01:10:04;;;;;;;30.17;21.52;;;;;;;;;;4941831;29;20028;-81
2023/04/20 01:12:30;;;;;;;30.98;22.20;;;;;;;;;;4972755;28;20043;-82
2023/04/20 01:14:56;;;;;;;27.00;21.60;;;;;;;;;;4941797;29;20067;-82
2023/04/20 01:17:23;;;;;;;28.73;21.05;;;;;;;;;;4972934;28;20114;-82
2023/04/20 01:19:49;;;;;;;29.73;21.90;;;;;;;;;;4941721;29;20296;-82
2023/04/20 01:22:19;;;;;;;28.98;21.67;;;;;;;;;;4941843;29;20106;-81
2023/04/20 01:24:45;;;;;;;28.92;21.92;;;;;;;;;;4941344;29;20055;-81
2023/04/20 01:27:12;;;;;;;30.85;21.25;;;;;;;;;;4941436;29;20437;-81
2023/04/20 01:29:38;;;;;;;28.45;22.10;;;;;;;;;;4941514;29;20484;-81
2023/04/20 01:32:05;;;;;;;32.35;21.70;;;;;;;;;;4972469;28;20032;-81
2023/04/20 01:34:31;;;;;;;28.73;21.60;;;;;;;;;;4941320;29;20030;-81
2023/04/20 01:36:57;;;;;;;29.15;21.70;;;;;;;;;;4941464;29;20106;-81
2023/04/20 01:39:24;;;;;;;31.55;21.80;;;;;;;;;;4941536;29;20304;-81
2023/04/20 01:41:50;;;;;;;34.13;20.83;;;;;;;;;;4941217;29;20419;-82
2023/04/20 01:44:16;;;;;;;31.42;22.20;;;;;;;;;;4941216;29;20020;-82
2023/04/20 01:46:42;;;;;;;29.92;20.60;;;;;;;;;;4941262;29;20364;-82
2023/04/20 01:49:09;;;;;;;36.03;21.92;;;;;;;;;;4941007;29;20063;-82
2023/04/20 01:51:35;;;;;;;29.88;20.38;;;;;;;;;;4941321;29;20063;-82
2023/04/20 01:54:01;;;;;;;30.75;21.08;;;;;;;;;;4972108;28;20034;-81
2023/04/20 01:56:27;;;;;;;27.33;19.35;;;;;;;;;;4941023;29;20110;-81
2023/04/20 01:58:54;;;;;;;27.67;18.58;;;;;;;;;;4941125;29;20346;-82
2023/04/20 02:01:20;;;;;;;26.13;19.40;;;;;;;;;;4940910;29;20024;-82
2023/04/20 02:03:47;;;;;;;27.05;20.17;;;;;;;;;;4940831;29;20158;-82
2023/04/20 02:06:14;;;;;;;28.65;19.90;;;;;;;;;;4971730;28;20031;-82
2023/04/20 02:08:40;;;;;;;25.58;19.33;;;;;;;;;;4971345;28;20126;-82
2023/04/20 02:11:06;;;;;;;28.02;19.30;;;;;;;;;;4940924;29;20035;-82
2023/04/20 02:13:32;;;;;;;24.00;18.98;;;;;;;;;;4940459;29;20036;-82
2023/04/20 02:15:58;;;;;;;27.88;20.08;;;;;;;;;;4940773;29;20323;-82
2023/04/20 02:18:24;;;;;;;27.20;19.25;;;;;;;;;;4939881;29;20024;-81
2023/04/20 02:20:50;;;;;;;26.02;18.58;;;;;;;;;;4940541;29;20031;-82
2023/04/20 02:23:18;;;;;;;24.85;18.88;;;;;;;;;;4940249;29;20443;-82
2023/04/20 02:25:44;;;;;;;24.23;17.83;;;;;;;;;;4940664;29;20387;-81
2023/04/20 02:28:10;;;;;;;26.85;17.95;;;;;;;;;;4940484;29;20027;-82
2023/04/20 02:30:36;;;;;;;25.58;17.75;;;;;;;;;;4971094;28;20036;-81
2023/04/20 02:33:02;;;;;;;24.50;18.08;;;;;;;;;;4940298;29;20083;-81
2023/04/20 02:35:28;;;;;;;25.20;17.40;;;;;;;;;;4971211;28;20036;-82
2023/04/20 02:37:54;;;;;;;21.38;17.15;;;;;;;;;;4970898;28;20122;-81
2023/04/20 02:40:20;;;;;;;22.67;17.83;;;;;;;;;;4940186;29;20019;-81
2023/04/20 02:42:46;;;;;;;26.10;18.05;;;;;;;;;;4940256;29;20402;-81
2023/04/20 02:45:13;;;;;;;25.38;17.67;;;;;;;;;;4940159;29;20027;-81
2023/04/20 02:47:39;;;;;;;24.88;18.77;;;;;;;;;;4940146;29;20058;-81
2023/04/20 02:50:05;;;;;;;24.77;17.98;;;;;;;;;;4940139;29;20118;-81
2023/04/20 02:52:31;;;;;;;26.23;18.25;;;;;;;;;;4939865;29;20307;-81
2023/04/20 02:54:57;;;;;;;26.70;17.75;;;;;;;;;;4971035;28;20407;-81
2023/04/20 02:57:24;;;;;;;27.33;18.80;;;;;;;;;;4971205;28;20323;-80
2023/04/20 02:59:50;;;;;;;26.65;19.58;;;;;;;;;;4970580;28;20351;-81
2023/04/20 03:02:16;;;;;;;25.67;18.13;;;;;;;;;;4939793;29;20050;-81
2023/04/20 03:04:42;;;;;;;24.63;18.88;;;;;;;;;;4970868;28;20039;-81
2023/04/20 03:07:09;;;;;;;27.42;18.33;;;;;;;;;;4939534;29;20032;-81
2023/04/20 03:09:36;;;;;;;25.33;18.75;;;;;;;;;;4939719;29;20023;-82
2023/04/20 03:12:02;;;;;;;26.17;18.00;;;;;;;;;;4970066;28;20045;-82
2023/04/20 03:14:28;;;;;;;25.50;18.15;;;;;;;;;;4939805;29;20034;-82
2023/04/20 03:16:54;;;;;;;24.50;17.58;;;;;;;;;;4939676;29;20024;-82
2023/04/20 03:19:20;;;;;;;22.67;17.73;;;;;;;;;;4970127;28;20039;-81
2023/04/20 03:21:47;;;;;;;25.95;19.20;;;;;;;;;;4939652;29;20056;-81
2023/04/20 03:24:13;;;;;;;26.30;18.25;;;;;;;;;;4970497;28;20055;-81
2023/04/20 03:26:39;;;;;;;27.48;18.20;;;;;;;;;;4939818;29;20035;-82
2023/04/20 03:29:05;;;;;;;26.27;18.40;;;;;;;;;;4941068;29;20019;-81
2023/04/20 03:31:31;;;;;;;28.55;18.50;;;;;;;;;;4942843;29;20434;-81
2023/04/20 03:33:57;;;;;;;25.65;18.60;;;;;;;;;;4943227;29;20032;-82
2023/04/20 03:36:23;;;;;;;26.05;18.10;;;;;;;;;;4943265;29;20162;-81
2023/04/20 03:38:49;;;;;;;26.23;18.33;;;;;;;;;;4942473;29;20359;-81
2023/04/20 03:41:15;;;;;;;26.73;18.45;;;;;;;;;;4942948;29;20032;-81
2023/04/20 03:43:41;;;;;;;25.08;18.00;;;;;;;;;;4943300;29;20031;-81
2023/04/20 03:46:08;;;;;;;27.17;17.80;;;;;;;;;;4943245;29;20359;-86
2023/04/20 03:48:34;;;;;;;27.10;18.05;;;;;;;;;;4943181;29;20051;-86
2023/04/20 03:51:00;;;;;;;25.70;18.25;;;;;;;;;;4942861;29;20028;-86
2023/04/20 03:53:27;;;;;;;29.42;18.55;;;;;;;;;;4943319;29;20082;-86
2023/04/20 03:55:54;;;;;;;25.92;18.42;;;;;;;;;;4943117;29;20059;-86
2023/04/20 03:58:20;;;;;;;27.20;18.17;;;;;;;;;;4943742;29;20027;-86
2023/04/20 04:00:47;;;;;;;25.55;18.00;;;;;;;;;;4943525;29;20027;-86
2023/04/20 04:03:13;;;;;;;27.92;18.98;;;;;;;;;;4942502;29;20411;-86
2023/04/20 04:05:40;;;;;;;29.08;18.88;;;;;;;;;;4943463;29;20046;-86
2023/04/20 04:19:43;;;;;;;28.60;20.20;;;;;;;;;;5136111;27;20360;-87
2023/04/20 04:22:09;;;;;;;26.95;19.25;;;;;;;;;;5136391;28;20034;-87
2023/04/20 04:24:37;;;;;;;31.20;19.33;;;;;;;;;;5135672;28;20019;-87
2023/04/20 04:27:04;;;;;;;28.83;19.08;;;;;;;;;;5117738;28;20054;-87
2023/04/20 04:29:30;;;;;;;26.60;18.98;;;;;;;;;;5117636;28;20319;-87
2023/04/20 04:31:57;;;;;;;26.73;18.83;;;;;;;;;;5117547;28;20022;-87
2023/04/20 04:34:28;;;;;;;32.95;17.75;;;;;;;;;;5135531;28;20019;-87
2023/04/20 04:36:55;;;;;;;26.70;19.00;;;;;;;;;;5117523;28;20443;-87
2023/04/20 04:39:21;;;;;;;26.38;18.10;;;;;;;;;;5135579;28;20019;-87
2023/04/20 04:41:47;;;;;;;24.98;18.10;;;;;;;;;;5135477;28;20026;-87
2023/04/20 04:44:14;;;;;;;25.08;18.90;;;;;;;;;;5117558;28;20060;-87
2023/04/20 04:46:41;;;;;;;27.85;19.13;;;;;;;;;;5135228;28;20023;-87
2023/04/20 04:49:08;;;;;;;26.67;19.40;;;;;;;;;;5135513;28;20055;-87
2023/04/20 04:51:34;;;;;;;30.55;19.88;;;;;;;;;;5135479;28;20031;-86
2023/04/20 04:54:00;;;;;;;24.00;18.02;;;;;;;;;;5116833;28;20376;-88
2023/04/20 04:56:27;;;;;;;25.40;19.08;;;;;;;;;;5135512;28;20023;-86
2023/04/20 04:58:53;;;;;;;32.40;19.08;;;;;;;;;;5116632;28;20039;-87
2023/04/20 05:01:20;;;;;;;27.92;19.00;;;;;;;;;;5135067;28;20032;-87
2023/04/20 05:03:46;;;;;;;27.77;18.70;;;;;;;;;;5135018;28;20043;-87
2023/04/20 05:06:12;;;;;;;27.75;18.42;;;;;;;;;;5116852;28;20477;-87
2023/04/20 05:08:38;;;;;;;25.48;19.13;;;;;;;;;;5134434;28;20031;-87
2023/04/20 05:11:04;;;;;;;28.25;18.83;;;;;;;;;;5134789;28;20026;-87
2023/04/20 05:13:30;;;;;;;29.58;18.85;;;;;;;;;;5131578;28;20087;-87
2023/04/20 05:15:56;;;;;;;29.52;18.95;;;;;;;;;;5134667;28;20035;-86
2023/04/20 05:18:22;;;;;;;25.90;17.90;;;;;;;;;;5134262;28;20146;-87
2023/04/20 05:20:48;;;;;;;25.60;17.65;;;;;;;;;;5120348;28;20019;-86
2023/04/20 05:23:14;;;;;;;26.02;17.38;;;;;;;;;;5120845;28;20038;-87
2023/04/20 05:25:41;;;;;;;26.17;16.73;;;;;;;;;;5121161;28;20023;-86
2023/04/20 05:28:07;;;;;;;26.98;17.85;;;;;;;;;;5120920;28;20028;-86
2023/04/20 05:30:33;;;;;;;21.77;15.98;;;;;;;;;;5119891;28;20030;-86
2023/04/20 05:32:59;;;;;;;25.10;16.73;;;;;;;;;;5120736;28;20027;-87
2023/04/20 05:35:26;;;;;;;23.08;15.98;;;;;;;;;;5121016;28;20028;-86
2023/04/20 05:37:52;;;;;;;24.00;16.30;;;;;;;;;;5120784;28;20020;-87
2023/04/20 05:40:18;;;;;;;23.85;15.48;;;;;;;;;;5120655;28;20065;-86
2023/04/20 05:42:44;;;;;;;23.92;16.70;;;;;;;;;;5120613;28;20023;-86
2023/04/20 05:45:10;;;;;;;24.05;17.40;;;;;;;;;;5120774;28;20024;-87
2023/04/20 05:47:36;;;;;;;22.80;17.10;;;;;;;;;;5119174;28;20374;-86
2023/04/20 05:50:02;;;;;;;27.77;16.92;;;;;;;;;;5120566;28;20028;-86
2023/04/20 05:52:29;;;;;;;27.52;16.13;;;;;;;;;;5120497;28;20412;-87
2023/04/20 05:54:55;;;;;;;22.88;15.43;;;;;;;;;;5120581;28;20028;-86
2023/04/20 05:57:23;;;;;;;21.02;15.52;;;;;;;;;;5122234;27;20046;-86
2023/04/20 05:59:49;;;;;;;20.27;14.93;;;;;;;;;;5139805;27;20372;-86
2023/04/20 06:02:15;;;;;;;23.20;15.10;;;;;;;;;;5140815;27;20039;-86
2023/04/20 06:04:41;;;;;;;21.80;13.98;;;;;;;;;;5140699;27;20027;-86
2023/04/20 06:07:07;;;;;;;20.90;13.82;;;;;;;;;;5140953;27;20026;-86
2023/04/20 06:09:33;;;;;;;17.88;13.90;;;;;;;;;;5140704;27;20102;-86
2023/04/20 06:12:00;;;;;;;18.38;14.13;;;;;;;;;;5140603;27;20454;-86
2023/04/20 06:14:26;;;;;;;19.73;14.38;;;;;;;;;;5139191;27;20058;-78
2023/04/20 06:16:52;;;;;;;17.90;12.48;;;;;;;;;;5139685;27;20019;-79
2023/04/20 06:19:18;;;;;;;20.80;14.27;;;;;;;;;;5139803;27;20051;-79
2023/04/20 06:21:44;;;;;;;18.85;13.30;;;;;;;;;;5138430;27;20126;-79
2023/04/20 06:24:10;;;;;;;17.95;13.32;;;;;;;;;;5138672;27;20019;-79
2023/04/20 06:26:36;;;;;;;19.65;13.68;;;;;;;;;;5139985;27;20019;-79
2023/04/20 06:29:02;;;;;;;18.27;13.65;;;;;;;;;;5139854;27;20023;-79
2023/04/20 06:31:28;;;;;;;21.60;12.65;;;;;;;;;;5137283;27;20027;-79
2023/04/20 06:33:54;;;;;;;20.15;14.00;;;;;;;;;;5139431;27;20015;-79
2023/04/20 06:36:20;;;;;;;16.13;12.90;;;;;;;;;;5138591;27;20015;-79
2023/04/20 06:38:46;;;;;;;14.15;11.07;;;;;;;;;;5138430;27;20029;-79
2023/04/20 06:41:12;;;;;;;14.32;10.82;;;;;;;;;;5138437;27;20027;-79
2023/04/20 06:43:40;;;;;;;15.77;12.00;;;;;;;;;;5139545;27;20019;-78
2023/04/20 06:46:06;;;;;;;20.77;12.65;;;;;;;;;;5138441;27;20027;-79
2023/04/20 06:48:33;;;;;;;15.10;10.88;;;;;;;;;;5139598;27;20039;-79
2023/04/20 06:51:00;;;;;;;15.57;10.93;;;;;;;;;;5139599;27;20027;-79
2023/04/20 06:53:26;;;;;;;14.68;11.45;;;;;;;;;;5099471;27;20024;-78
2023/04/20 06:55:54;;;;;;;15.50;11.95;;;;;;;;;;5098545;28;20111;-78
2023/04/20 06:58:20;;;;;;;15.32;10.95;;;;;;;;;;5098050;28;20335;-79
2023/04/20 07:00:46;;;;;;;15.52;11.25;;;;;;;;;;5098331;28;20099;-78
2023/04/20 07:03:12;;;;;;;14.73;10.25;;;;;;;;;;5098066;28;20012;-78
2023/04/20 07:05:38;;;;;;;13.60;10.85;;;;;;;;;;5097846;28;20429;-78
2023/04/20 07:08:05;;;;;;;15.43;11.02;;;;;;;;;;5096837;28;20110;-78
2023/04/20 07:10:31;;;;;;;14.82;11.48;;;;;;;;;;5096877;28;20054;-78
2023/04/20 07:12:57;;;;;;;16.70;10.55;;;;;;;;;;5096848;28;20024;-79
2023/04/20 07:15:23;;;;;;;15.18;11.65;;;;;;;;;;5097397;28;20042;-78
2023/04/20 07:17:49;;;;;;;13.05;10.35;;;;;;;;;;5097635;28;20043;-78
2023/04/20 07:20:15;;;;;;;13.30;9.88;;;;;;;;;;5097816;28;20027;-78
2023/04/20 07:22:41;;;;;;;13.57;9.10;;;;;;;;;;5099710;28;20127;-77
2023/04/20 07:25:08;;;;;;;15.70;10.38;;;;;;;;;;5112746;28;20028;-78
2023/04/20 07:27:35;;;;;;;14.30;10.65;;;;;;;;;;5117979;28;20057;-78
2023/04/20 07:30:01;;;;;;;11.82;9.60;;;;;;;;;;5112183;28;20074;-78
2023/04/20 07:32:27;;;;;;;13.18;9.63;;;;;;;;;;5096514;28;20414;-78
2023/04/20 07:34:53;;;;;;;11.43;9.95;;;;;;;;;;5097436;28;20028;-79
2023/04/20 07:37:19;;;;;;;12.77;9.02;;;;;;;;;;5107426;27;20082;-78
2023/04/20 07:39:45;;;;;;;12.93;9.77;;;;;;;;;;5098282;28;20278;-78
2023/04/20 07:42:11;;;;;;;13.27;10.15;;;;;;;;;;5096254;28;20325;-78
2023/04/20 07:44:37;;;;;;;16.15;9.88;;;;;;;;;;5096481;28;20455;-78
2023/04/20 07:47:03;;;;;;;15.27;9.75;;;;;;;;;;5096427;28;20426;-78
2023/04/20 07:49:30;;;;;;;11.93;8.63;;;;;;;;;;5096939;28;20031;-78
2023/04/20 07:51:56;;;;;;;13.60;9.55;;;;;;;;;;5100080;28;20032;-78
2023/04/20 07:54:22;;;;;;;10.85;8.15;;;;;;;;;;5096144;28;20484;-78
2023/04/20 07:56:48;;;;;;;9.98;7.93;;;;;;;;;;5097439;28;20035;-78
2023/04/20 07:59:14;;;;;;;10.80;7.53;;;;;;;;;;5096218;28;20050;-78
2023/04/20 08:01:40;;;;;;;13.23;7.80;;;;;;;;;;5097541;28;20115;-78
2023/04/20 08:04:06;;;;;;;12.43;7.20;;;;;;;;;;5096099;28;20028;-78
2023/04/20 08:06:32;;;;;;;12.20;7.20;;;;;;;;;;5096099;28;20040;-78
2023/04/20 08:08:58;;;;;;;11.35;8.38;;;;;;;;;;5096036;28;20417;-79
2023/04/20 08:11:25;;;;;;;12.77;8.05;;;;;;;;;;5097035;28;20032;-77
2023/04/20 08:13:51;;;;;;;11.27;8.10;;;;;;;;;;5105663;28;20024;-78
2023/04/20 08:16:17;;;;;;;11.27;7.07;;;;;;;;;;5116004;28;20039;-78
2023/04/20 08:18:43;;;;;;;9.40;6.78;;;;;;;;;;5096286;28;20362;-78
2023/04/20 08:21:09;;;;;;;11.23;6.97;;;;;;;;;;5095950;28;20032;-78
2023/04/20 08:23:35;;;;;;;8.85;6.93;;;;;;;;;;5095805;28;20069;-78
2023/04/20 08:26:01;;;;;;;9.00;6.13;;;;;;;;;;5097118;28;20024;-78
2023/04/20 08:28:28;;;;;;;11.77;6.85;;;;;;;;;;5095889;28;20065;-78
2023/04/20 08:30:54;;;;;;;10.35;6.68;;;;;;;;;;5096906;28;20051;-78
2023/04/20 08:33:20;;;;;;;7.82;7.03;;;;;;;;;;5103651;28;20031;-78
2023/04/20 08:35:46;;;;;;;8.50;7.28;;;;;;;;;;5096947;28;20032;-78
2023/04/20 08:38:12;;;;;;;11.65;6.63;;;;;;;;;;5106147;28;20047;-78
2023/04/20 08:40:38;;;;;;;10.07;6.47;;;;;;;;;;5096969;28;20016;-79
2023/04/20 08:43:04;;;;;;;12.27;6.97;;;;;;;;;;5096971;28;20024;-79
2023/04/20 08:45:30;;;;;;;10.27;6.75;;;;;;;;;;5095722;28;20040;-78
2023/04/20 08:47:58;;;;;;;12.13;6.75;;;;;;;;;;5097004;28;20093;-78
2023/04/20 08:50:24;;;;;;;9.65;7.05;;;;;;;;;;5096855;28;20027;-78
2023/04/20 08:52:50;;;;;;;10.38;6.32;;;;;;;;;;5096666;28;20027;-78
2023/04/20 08:55:20;;;;;;;10.25;6.65;;;;;;;;;;5098968;28;20030;-78
2023/04/20 08:57:48;;;;;;;11.27;6.95;;;;;;;;;;5100357;28;20028;-78
2023/04/20 09:00:15;;;;;;;8.63;6.28;;;;;;;;;;5114236;28;20458;-79
2023/04/20 09:02:51;;;;;;;14.82;7.35;;;;;;;;;;5103908;28;20060;-78
2023/04/20 09:05:25;;;;;;;12.23;6.50;;;;;;;;;;5100497;28;20020;-78
2023/04/20 09:07:52;;;;;;;10.70;7.10;;;;;;;;;;5099305;28;20093;-78
2023/04/20 09:10:18;;;;;;;10.63;6.88;;;;;;;;;;5100286;28;20034;-78
2023/04/20 09:12:44;;;;;;;10.27;6.82;;;;;;;;;;5100153;28;20111;-78
2023/04/20 09:15:10;;;;;;;11.77;7.00;;;;;;;;;;5100387;28;20025;-78
2023/04/20 09:17:39;;;;;;;10.75;6.88;;;;;;;;;;5100063;28;20060;-78
2023/04/20 09:20:06;;;;;;;8.75;6.65;;;;;;;;;;5100419;28;20032;-78
2023/04/20 09:22:33;;;;;;;13.57;7.32;;;;;;;;;;5098706;28;20149;-78
2023/04/20 09:25:00;;;;;;;10.38;8.05;;;;;;;;;;5100042;28;20028;-78
2023/04/20 09:27:26;;;;;;;13.15;8.38;;;;;;;;;;5099955;28;20052;-78
2023/04/20 09:29:56;;;;;;;11.35;7.47;;;;;;;;;;5100955;28;20044;-79
2023/04/20 09:32:23;;;;;;;15.40;7.35;;;;;;;;;;5114696;28;20454;-78
2023/04/20 09:34:49;;;;;;;10.57;7.45;;;;;;;;;;5111021;28;20058;-78
2023/04/20 09:37:16;;;;;;;11.40;7.82;;;;;;;;;;5099404;28;20070;-78
2023/04/20 09:39:43;;;;;;;11.15;7.43;;;;;;;;;;5100009;28;20028;-78
2023/04/20 09:42:11;;;;;;;14.70;7.90;;;;;;;;;;5099852;28;20031;-78
2023/04/20 09:44:37;;;;;;;11.75;7.75;;;;;;;;;;5099657;28;20016;-78
2023/04/20 09:47:04;;;;;;;12.07;7.53;;;;;;;;;;5099539;28;20097;-78
2023/04/20 09:49:31;;;;;;;12.38;6.93;;;;;;;;;;5099848;28;20024;-78
2023/04/20 09:51:57;;;;;;;12.98;7.10;;;;;;;;;;5099593;28;20309;-78
2023/04/20 09:54:24;;;;;;;9.65;6.50;;;;;;;;;;5099335;28;20397;-78
2023/04/20 09:56:50;;;;;;;11.43;6.85;;;;;;;;;;5099544;28;20083;-78
2023/04/20 09:59:18;;;;;;;9.70;6.30;;;;;;;;;;5099417;28;20024;-79
2023/04/20 10:01:45;;;;;;;10.25;6.78;;;;;;;;;;5098218;28;20020;-79
2023/04/20 10:04:13;;;;;;;10.15;6.15;;;;;;;;;;5099272;28;20297;-79
2023/04/20 10:06:39;;;;;;;9.90;6.50;;;;;;;;;;5099181;28;20101;-79
2023/04/20 10:09:10;;;;;;;11.52;7.38;;;;;;;;;;5098188;28;20028;-79
2023/04/20 10:11:39;;;;;;;9.15;6.45;;;;;;;;;;5098156;28;20155;-79
2023/04/20 10:14:19;;;;;;;10.35;6.20;;;;;;;;;;5103139;28;20031;-78
2023/04/20 10:16:46;;;;;;;12.52;6.28;;;;;;;;;;5103511;28;20034;-78
2023/04/20 10:19:14;;;;;;;8.75;5.53;;;;;;;;;;5110053;28;20048;-78
2023/04/20 10:21:48;;;;;;;9.43;5.82;;;;;;;;;;5099067;28;20306;-78
2023/04/20 10:24:17;;;;;;;11.02;6.00;;;;;;;;;;5098852;28;20040;-78
2023/04/20 10:26:44;;;;;;;13.13;5.85;;;;;;;;;;5098801;28;20020;-79
2023/04/20 10:29:11;;;;;;;10.52;5.95;;;;;;;;;;5113432;28;20024;-78
2023/04/20 10:31:40;;;;;;;7.93;5.57;;;;;;;;;;5118893;28;20036;-78
2023/04/20 10:34:07;;;;;;;6.78;5.72;;;;;;;;;;5119155;28;20058;-78
2023/04/20 10:36:35;;;;;;;7.07;5.32;;;;;;;;;;5119115;28;20321;-78
2023/04/20 10:39:13;;;;;;;9.18;5.35;;;;;;;;;;5118939;28;20409;-79
2023/04/20 10:41:50;;;;;;;8.60;5.30;;;;;;;;;;5118752;28;20047;-79
2023/04/20 10:44:16;;;;;;;7.80;5.22;;;;;;;;;;5117919;28;20057;-78
2023/04/20 10:46:42;;;;;;;10.05;5.30;;;;;;;;;;5118881;28;20111;-78
2023/04/20 10:49:08;;;;;;;7.85;5.50;;;;;;;;;;5118767;28;20059;-79
2023/04/20 10:51:35;;;;;;;7.65;4.95;;;;;;;;;;5118855;28;20032;-79
2023/04/20 10:54:07;;;;;;;8.35;4.93;;;;;;;;;;5102661;28;20039;-79
2023/04/20 10:56:37;;;;;;;6.45;4.75;;;;;;;;;;5098202;28;20405;-78
2023/04/20 10:59:07;;;;;;;8.18;5.78;;;;;;;;;;5100430;28;20024;-78
2023/04/20 11:01:33;;;;;;;5.97;5.38;;;;;;;;;;5107383;28;20099;-78
2023/04/20 11:03:59;;;;;;;7.10;5.18;;;;;;;;;;5108605;28;20015;-78
2023/04/20 11:06:26;;;;;;;8.52;5.20;;;;;;;;;;5118517;28;20313;-78
2023/04/20 11:08:52;;;;;;;10.75;5.80;;;;;;;;;;5118396;28;20107;-79
2023/04/20 11:11:19;;;;;;;8.00;5.38;;;;;;;;;;5118277;28;20114;-78
2023/04/20 11:13:45;;;;;;;8.00;5.35;;;;;;;;;;5116952;28;20030;-78
2023/04/20 11:16:12;;;;;;;10.45;5.95;;;;;;;;;;5118429;27;20080;-78
2023/04/20 11:18:52;;;;;;;7.40;5.65;;;;;;;;;;5115956;28;20440;-78
2023/04/20 11:21:18;;;;;;;9.02;6.32;;;;;;;;;;5108463;28;20016;-78
2023/04/20 11:23:44;;;;;;;11.07;6.32;;;;;;;;;;5097779;28;20024;-79
2023/04/20 11:26:10;;;;;;;10.38;6.28;;;;;;;;;;5097692;28;20103;-79
2023/04/20 11:28:36;;;;;;;7.80;6.18;;;;;;;;;;5097799;28;20042;-79
2023/04/20 11:31:02;;;;;;;9.60;6.20;;;;;;;;;;5097779;28;20175;-79
2023/04/20 11:33:29;;;;;;;8.15;6.03;;;;;;;;;;5096596;28;20024;-79
2023/04/20 11:35:57;;;;;;;12.25;6.25;;;;;;;;;;5097544;28;20034;-78
2023/04/20 11:38:30;;;;;;;9.60;7.05;;;;;;;;;;5097554;28;20089;-78
2023/04/20 11:41:03;;;;;;;12.90;8.30;;;;;;;;;;5097413;28;20027;-78
2023/04/20 11:43:30;;;;;;;8.80;7.30;;;;;;;;;;5097707;28;20318;-79
2023/04/20 11:45:57;;;;;;;9.57;6.70;;;;;;;;;;5096337;28;20325;-78
2023/04/20 11:48:24;;;;;;;8.82;5.97;;;;;;;;;;5096514;28;20036;-79
2023/04/20 11:50:50;;;;;;;7.85;5.60;;;;;;;;;;5097375;28;20327;-78
2023/04/20 11:53:16;;;;;;;8.93;5.82;;;;;;;;;;5096236;28;20476;-79
2023/04/20 11:55:42;;;;;;;7.40;5.50;;;;;;;;;;5097420;28;20322;-78
2023/04/20 11:58:08;;;;;;;8.02;5.50;;;;;;;;;;5097190;28;20421;-79
2023/04/20 12:00:35;;;;;;;7.63;5.05;;;;;;;;;;5097297;28;20032;-79
2023/04/20 12:03:01;;;;;;;8.73;5.38;;;;;;;;;;5097410;28;20023;-79
2023/04/20 12:05:28;;;;;;;7.78;5.28;;;;;;;;;;5097379;28;20020;-79
2023/04/20 12:07:54;;;;;;;8.07;5.10;;;;;;;;;;5097185;28;20028;-79
2023/04/20 12:10:20;;;;;;;7.10;4.55;;;;;;;;;;5097376;28;20024;-79
2023/04/20 12:12:46;;;;;;;8.65;5.10;;;;;;;;;;5097137;28;20083;-79
2023/04/20 12:15:12;;;;;;;6.47;4.20;;;;;;;;;;5097112;28;20042;-79
2023/04/20 12:17:38;;;;;;;6.28;4.95;;;;;;;;;;5096880;28;20044;-79
2023/04/20 12:20:07;;;;;;;7.50;5.47;;;;;;;;;;5097121;28;20024;-78
2023/04/20 12:22:33;;;;;;;9.20;5.80;;;;;;;;;;5097016;28;20032;-79
2023/04/20 12:24:59;;;;;;;10.32;5.97;;;;;;;;;;5097240;28;20091;-79
2023/04/20 12:27:26;;;;;;;7.45;5.80;;;;;;;;;;5095580;28;20086;-79
2023/04/20 12:29:52;;;;;;;8.73;4.70;;;;;;;;;;5098817;28;20039;-79
2023/04/20 12:32:19;;;;;;;8.52;4.65;;;;;;;;;;5101082;28;20024;-78
2023/04/20 12:34:45;;;;;;;6.45;5.13;;;;;;;;;;5100982;28;20027;-79
2023/04/20 12:37:11;;;;;;;7.95;5.20;;;;;;;;;;5100889;28;20066;-79
2023/04/20 12:39:37;;;;;;;10.90;5.80;;;;;;;;;;5099803;28;20024;-79
2023/04/20 12:42:03;;;;;;;9.20;5.53;;;;;;;;;;5101020;28;20055;-79
2023/04/20 12:44:29;;;;;;;6.60;4.70;;;;;;;;;;5100916;28;20020;-79
2023/04/20 12:46:55;;;;;;;7.90;5.30;;;;;;;;;;5100732;28;20329;-79
2023/04/20 12:49:21;;;;;;;6.57;5.38;;;;;;;;;;5100793;28;20024;-79
2023/04/20 12:51:47;;;;;;;9.38;5.20;;;;;;;;;;5099520;28;20035;-79
2023/04/20 12:54:13;;;;;;;10.80;5.32;;;;;;;;;;5100844;28;20024;-79
2023/04/20 12:56:39;;;;;;;5.30;4.53;;;;;;;;;;5100590;28;20056;-78
2023/04/20 12:59:06;;;;;;;9.18;4.65;;;;;;;;;;5100324;28;20032;-79
2023/04/20 13:01:32;;;;;;;8.23;4.97;;;;;;;;;;5100950;28;20081;-78
2023/04/20 13:03:58;;;;;;;8.35;4.63;;;;;;;;;;5117701;28;20051;-79
2023/04/20 13:06:25;;;;;;;6.45;4.53;;;;;;;;;;5120867;28;20057;-78
2023/04/20 13:08:51;;;;;;;6.38;4.15;;;;;;;;;;5113412;28;20061;-79
2023/04/20 13:11:17;;;;;;;8.07;4.47;;;;;;;;;;5118811;28;20088;-80
2023/04/20 13:13:43;;;;;;;5.90;4.32;;;;;;;;;;5117149;28;20052;-80
2023/04/20 13:16:09;;;;;;;9.50;5.25;;;;;;;;;;5104973;28;20028;-81
2023/04/20 13:18:35;;;;;;;5.55;4.20;;;;;;;;;;5099939;28;20047;-81
2023/04/20 13:21:01;;;;;;;6.38;4.88;;;;;;;;;;5100269;28;20020;-81
2023/04/20 13:23:27;;;;;;;5.47;4.18;;;;;;;;;;5100057;28;20027;-81
2023/04/20 13:25:55;;;;;;;6.32;3.67;;;;;;;;;;5099975;28;20131;-81
2023/04/20 13:28:24;;;;;;;6.97;3.88;;;;;;;;;;5100347;28;20035;-81
2023/04/20 13:30:50;;;;;;;8.13;4.57;;;;;;;;;;5100124;28;20405;-82
2023/04/20 13:33:16;;;;;;;10.20;5.00;;;;;;;;;;5100005;28;20031;-81
2023/04/20 13:35:42;;;;;;;10.20;5.10;;;;;;;;;;5099890;28;20103;-82
2023/04/20 13:38:08;;;;;;;10.23;4.70;;;;;;;;;;5099775;28;20028;-81
2023/04/20 13:40:34;;;;;;;6.47;4.88;;;;;;;;;;5099452;28;20020;-81
2023/04/20 13:43:00;;;;;;;6.10;4.45;;;;;;;;;;5098711;28;20030;-81
2023/04/20 13:45:27;;;;;;;7.82;4.53;;;;;;;;;;5099705;28;20042;-79
2023/04/20 13:47:53;;;;;;;5.63;4.20;;;;;;;;;;5099716;28;20032;-81
2023/04/20 13:50:19;;;;;;;6.22;4.07;;;;;;;;;;5099644;28;20024;-81
2023/04/20 13:52:45;;;;;;;5.68;4.13;;;;;;;;;;5099454;28;20115;-80
2023/04/20 13:55:12;;;;;;;7.40;4.70;;;;;;;;;;5099388;28;20024;-80
2023/04/20 13:57:38;;;;;;;8.52;4.72;;;;;;;;;;5099423;28;20020;-80
2023/04/20 14:00:04;;;;;;;10.35;5.30;;;;;;;;;;5112632;28;20127;-80
2023/04/20 14:02:30;;;;;;;8.38;5.32;;;;;;;;;;5119853;28;20458;-80
2023/04/20 14:04:56;;;;;;;8.77;4.97;;;;;;;;;;5118625;28;20024;-80
2023/04/20 14:07:23;;;;;;;8.70;4.93;;;;;;;;;;5119651;28;20031;-80
2023/04/20 14:09:49;;;;;;;8.63;4.90;;;;;;;;;;5118474;28;20023;-80
2023/04/20 14:12:15;;;;;;;10.20;5.18;;;;;;;;;;5118459;28;20402;-80
2023/04/20 14:14:42;;;;;;;6.22;5.03;;;;;;;;;;5119550;28;20096;-80
2023/04/20 14:17:10;;;;;;;11.07;4.68;;;;;;;;;;5119411;28;20325;-83
2023/04/20 14:19:36;;;;;;;8.45;4.57;;;;;;;;;;5118383;28;20047;-80
2023/04/20 14:22:02;;;;;;;7.88;4.70;;;;;;;;;;5117895;28;20325;-80
2023/04/20 14:24:28;;;;;;;8.80;5.30;;;;;;;;;;5119310;28;20085;-80
2023/04/20 14:26:55;;;;;;;5.65;4.65;;;;;;;;;;5118058;28;20036;-80
2023/04/20 14:29:22;;;;;;;7.50;4.70;;;;;;;;;;5119429;28;20027;-80
2023/04/20 14:31:48;;;;;;;12.77;4.88;;;;;;;;;;5119210;28;20027;-80
2023/04/20 14:34:14;;;;;;;9.05;5.18;;;;;;;;;;5118076;28;20028;-80